Time;durP1;ratioP1;P1;durP2;ratioP2;P2;SDS_P1;SDS_P2;PMS_P1;PMS_P2;Temp;Humidity;BMP_temperature;BMP_pressure;BME280_temperature;BME280_humidity;BME280_pressure;Samples;Min_cycle;Max_cycle;Signal;HPM_P1;HPM_P2
2023/08/26 00:01:43;;;;;;;3.90;3.60;;;25.30;88.70;24.80;96106.00;;;;5021441;28;20200;-82
2023/08/26 00:04:10;;;;;;;4.33;4.03;;;25.30;88.90;24.80;96107.00;;;;5029065;28;20205;-82
2023/08/26 00:06:37;;;;;;;4.17;3.87;;;25.30;88.90;24.80;96105.00;;;;5023335;28;20217;-81
2023/08/26 00:09:05;;;;;;;5.47;4.30;;;25.30;89.00;24.80;96090.00;;;;5031794;28;20203;-81
2023/08/26 00:11:32;;;;;;;5.20;4.50;;;25.30;88.90;24.80;96072.00;;;;5015214;28;20197;-81
2023/08/26 00:14:01;;;;;;;4.87;4.37;;;25.20;88.50;24.80;96057.00;;;;5016311;28;20202;-82
2023/08/26 00:16:28;;;;;;;5.20;4.80;;;25.20;88.30;24.80;96044.00;;;;5030378;28;20213;-82
2023/08/26 00:18:59;;;;;;;4.20;3.90;;;25.20;88.40;24.80;96039.00;;;;5017415;28;20289;-82
2023/08/26 00:21:26;;;;;;;5.30;4.80;;;25.20;88.60;24.80;96032.00;;;;5028142;28;20224;-82
2023/08/26 00:23:54;;;;;;;5.77;4.83;;;25.20;88.70;24.80;96030.00;;;;5026290;28;20280;-82
2023/08/26 00:26:22;;;;;;;4.27;3.97;;;25.20;88.80;24.70;96041.00;;;;5022318;28;20656;-82
2023/08/26 00:28:49;;;;;;;4.40;4.00;;;25.20;89.00;24.70;96051.00;;;;5021951;28;20190;-82
2023/08/26 00:31:18;;;;;;;4.43;4.13;;;25.20;89.20;24.70;96050.00;;;;5029807;28;20308;-82
2023/08/26 00:33:45;;;;;;;4.50;4.10;;;25.20;89.30;24.70;96046.00;;;;5021574;28;20288;-82
2023/08/26 00:36:12;;;;;;;4.67;4.23;;;25.20;89.30;24.70;96054.00;;;;5021849;28;20724;-82
2023/08/26 00:38:39;;;;;;;5.70;4.10;;;25.20;89.30;24.70;96048.00;;;;5020482;28;20209;-82
2023/08/26 00:41:07;;;;;;;4.77;4.37;;;25.20;89.30;24.70;96037.00;;;;5029094;28;20288;-82
2023/08/26 00:43:37;;;;;;;4.77;4.37;;;25.20;89.30;24.70;96045.00;;;;5022051;28;20565;-82
2023/08/26 00:46:05;;;;;;;4.50;4.17;;;25.20;89.20;24.70;96043.00;;;;5019275;28;20229;-82
2023/08/26 00:48:35;;;;;;;4.83;4.43;;;25.20;89.20;24.70;96027.00;;;;5017354;28;20201;-82
2023/08/26 00:51:02;;;;;;;5.43;4.57;;;25.20;89.10;24.70;96021.00;;;;5026039;28;20218;-82
2023/08/26 00:53:31;;;;;;;4.53;4.13;;;25.10;89.20;24.70;96033.00;;;;5021032;28;20201;-82
2023/08/26 00:55:58;;;;;;;3.77;3.47;;;25.10;89.30;24.70;96044.00;;;;5026541;28;20247;-82
2023/08/26 00:58:27;;;;;;;4.80;4.40;;;25.10;89.30;24.60;96047.00;;;;5021938;28;20195;-82
2023/08/26 01:00:55;;;;;;;4.87;4.37;;;25.10;89.20;24.60;96041.00;;;;5018659;28;20262;-82
2023/08/26 01:03:22;;;;;;;5.20;4.80;;;25.10;89.00;24.60;96053.00;;;;5021854;28;20194;-82
2023/08/26 01:05:51;;;;;;;5.97;4.77;;;25.10;88.80;24.60;96066.00;;;;5019306;28;20210;-81
2023/08/26 01:08:18;;;;;;;4.30;4.00;;;25.10;88.70;24.60;96081.00;;;;5021024;28;20208;-82
2023/08/26 01:11:05;;;;;;;6.20;5.60;;;25.10;89.10;24.60;96078.00;;;;5022832;28;20219;-82
2023/08/26 01:13:43;;;;;;;5.57;5.17;;;25.10;88.50;24.60;96078.00;;;;5021578;28;20189;-82
2023/08/26 01:16:14;;;;;;;5.63;5.20;;;25.10;88.80;24.60;96085.00;;;;5022427;28;20434;-82
2023/08/26 01:18:44;;;;;;;6.00;5.50;;;25.00;89.20;24.60;96059.00;;;;5027697;28;20200;-82
2023/08/26 01:21:15;;;;;;;4.97;4.57;;;25.00;89.00;24.60;96065.00;;;;5021958;28;20208;-82
2023/08/26 01:23:45;;;;;;;5.53;5.03;;;25.00;88.90;24.60;96088.00;;;;5021410;28;20190;-82
2023/08/26 01:26:13;;;;;;;5.30;4.80;;;25.00;89.20;24.60;96068.00;;;;5013193;28;20224;-82
2023/08/26 01:28:40;;;;;;;5.07;4.77;;;25.00;89.20;24.60;96051.00;;;;5019289;28;20205;-82
2023/08/26 01:31:12;;;;;;;5.43;5.03;;;25.00;89.10;24.50;96065.00;;;;5021066;28;20702;-81
2023/08/26 01:33:50;;;;;;;5.70;4.87;;;25.00;89.20;24.50;96065.00;;;;5020900;28;20194;-82
2023/08/26 01:36:24;;;;;;;5.37;4.93;;;25.00;89.20;24.50;96059.00;;;;5023388;28;20214;-81
2023/08/26 01:38:57;;;;;;;5.37;4.90;;;25.00;89.30;24.50;96072.00;;;;5020011;28;20205;-82
2023/08/26 01:41:26;;;;;;;5.30;4.87;;;25.00;89.40;24.50;96075.00;;;;5029175;28;20651;-82
2023/08/26 01:43:55;;;;;;;5.13;4.73;;;25.00;89.70;24.50;96063.00;;;;5018803;28;20207;-82
2023/08/26 01:46:36;;;;;;;4.73;4.33;;;25.00;89.50;24.50;96072.00;;;;5016103;28;20814;-82
2023/08/26 01:49:04;;;;;;;6.40;5.10;;;25.00;89.10;24.50;96078.00;;;;5024389;28;20674;-82
2023/08/26 01:51:33;;;;;;;5.67;5.13;;;24.90;89.60;24.50;96070.00;;;;5024568;28;20251;-81
2023/08/26 01:54:02;;;;;;;5.87;5.27;;;24.90;89.50;24.50;96086.00;;;;5017963;28;20277;-81
2023/08/26 01:56:29;;;;;;;5.47;5.00;;;24.90;89.50;24.50;96100.00;;;;5022812;28;20218;-82
2023/08/26 01:58:56;;;;;;;4.77;4.37;;;24.90;89.70;24.60;96103.00;;;;5020944;28;20288;-82
2023/08/26 02:01:23;;;;;;;5.53;4.83;;;24.90;89.80;24.60;96134.00;;;;5024863;28;20289;-81
2023/08/26 02:03:51;;;;;;;5.40;5.00;;;24.90;89.80;24.60;96140.00;;;;5020674;28;20202;-82
2023/08/26 02:06:18;;;;;;;5.67;5.20;;;24.90;90.20;24.60;96138.00;;;;5017237;28;20217;-82
2023/08/26 02:08:48;;;;;;;5.57;5.10;;;25.00;90.00;24.60;96145.00;;;;5029334;28;20211;-81
2023/08/26 02:11:17;;;;;;;5.33;4.77;;;25.00;90.00;24.60;96135.00;;;;5032398;28;20232;-81
2023/08/26 02:13:44;;;;;;;5.17;4.67;;;25.00;89.70;24.60;96115.00;;;;5030136;28;20258;-81
2023/08/26 02:16:11;;;;;;;5.07;4.53;;;25.00;89.70;24.60;96095.00;;;;5038983;28;20223;-81
2023/08/26 02:18:38;;;;;;;4.80;4.50;;;25.00;89.40;24.60;96104.00;;;;5031473;28;20182;-81
2023/08/26 02:21:05;;;;;;;5.10;4.67;;;25.00;89.20;24.60;96101.00;;;;5022647;28;20202;-81
2023/08/26 02:23:32;;;;;;;5.33;4.83;;;25.00;89.40;24.60;96095.00;;;;5034041;28;20190;-81
2023/08/26 02:26:00;;;;;;;5.40;4.90;;;25.00;89.60;24.60;96062.00;;;;5034915;28;20209;-81
2023/08/26 02:28:28;;;;;;;4.93;4.57;;;25.00;89.50;24.60;96042.00;;;;5032963;28;20196;-81
2023/08/26 02:30:55;;;;;;;5.13;4.73;;;25.00;89.20;24.60;96035.00;;;;5037660;28;20319;-81
2023/08/26 02:33:24;;;;;;;7.30;4.60;;;25.00;89.40;24.60;96038.00;;;;5032758;28;20212;-81
2023/08/26 02:35:51;;;;;;;4.90;4.50;;;25.00;89.70;24.60;96037.00;;;;5029035;28;20221;-81
2023/08/26 02:38:18;;;;;;;5.03;4.30;;;25.00;89.70;24.60;96021.00;;;;5035162;28;20300;-81
2023/08/26 02:40:53;;;;;;;4.87;4.47;;;25.00;89.90;24.60;96071.00;;;;5039264;28;20244;-81
2023/08/26 02:43:21;;;;;;;5.43;5.00;;;25.00;89.90;24.60;96090.00;;;;5033000;28;20659;-81
2023/08/26 02:45:53;;;;;;;4.93;4.53;;;25.00;90.00;24.50;96074.00;;;;5042792;28;20226;-80
2023/08/26 02:48:20;;;;;;;5.20;4.80;;;25.00;90.10;24.50;96078.00;;;;5034867;28;20206;-81
2023/08/26 02:50:48;;;;;;;5.47;4.97;;;25.00;90.00;24.50;96082.00;;;;5029651;28;20289;-81
2023/08/26 02:53:15;;;;;;;6.30;5.13;;;25.00;90.30;24.50;96086.00;;;;5031785;28;20261;-81
2023/08/26 02:55:42;;;;;;;5.73;5.23;;;25.00;90.10;24.50;96083.00;;;;5011351;28;20701;-80
2023/08/26 02:58:10;;;;;;;5.77;5.10;;;24.90;90.00;24.50;96107.00;;;;5033643;28;20280;-81
2023/08/26 03:00:38;;;;;;;5.87;4.83;;;24.90;90.00;24.40;96102.00;;;;5023292;28;20205;-81
2023/08/26 03:03:07;;;;;;;7.50;5.40;;;24.90;90.00;24.40;96107.00;;;;5029002;28;20205;-81
2023/08/26 03:05:35;;;;;;;5.20;4.80;;;24.90;89.90;24.40;96101.00;;;;5028460;28;20209;-81
2023/08/26 03:08:03;;;;;;;5.43;5.03;;;24.90;90.10;24.40;96114.00;;;;5027036;28;20220;-81
2023/08/26 03:10:30;;;;;;;5.40;4.97;;;24.80;90.30;24.40;96117.00;;;;5034418;28;20217;-81
2023/08/26 03:12:58;;;;;;;4.97;4.57;;;24.80;90.30;24.40;96115.00;;;;5015707;28;20703;-81
2023/08/26 03:15:28;;;;;;;5.20;4.70;;;24.80;90.40;24.40;96120.00;;;;5027441;28;20593;-81
2023/08/26 03:17:56;;;;;;;5.50;5.10;;;24.80;90.40;24.40;96140.00;;;;5016858;28;20208;-82
2023/08/26 03:20:25;;;;;;;5.13;4.73;;;24.80;90.40;24.40;96149.00;;;;5034498;28;20208;-81
2023/08/26 03:22:52;;;;;;;4.90;4.50;;;24.80;90.50;24.40;96153.00;;;;5029788;28;20761;-81
2023/08/26 03:25:19;;;;;;;5.67;4.80;;;24.80;90.30;24.40;96157.00;;;;5019676;28;20305;-82
2023/08/26 03:27:46;;;;;;;5.30;4.87;;;24.80;90.40;24.40;96164.00;;;;5018071;28;20285;-81
2023/08/26 03:30:14;;;;;;;5.27;4.77;;;24.80;90.40;24.40;96168.00;;;;5015243;28;20198;-82
2023/08/26 03:32:41;;;;;;;5.20;4.80;;;24.80;90.50;24.30;96174.00;;;;5022352;28;20722;-81
2023/08/26 03:35:09;;;;;;;5.30;4.90;;;24.80;90.40;24.40;96178.00;;;;5028306;28;20223;-82
2023/08/26 03:37:38;;;;;;;4.57;4.17;;;24.80;90.40;24.30;96194.00;;;;5027313;28;20202;-82
2023/08/26 03:40:09;;;;;;;3.50;3.00;;;24.80;90.20;24.30;96192.00;;;;5021116;28;20590;-82
2023/08/26 03:42:36;;;;;;;3.17;2.87;;;24.80;90.00;24.30;96190.00;;;;5025035;28;20285;-83
2023/08/26 03:45:04;;;;;;;2.60;2.30;;;24.80;89.60;24.20;96192.00;;;;5025139;28;20210;-82
2023/08/26 03:47:33;;;;;;;2.60;2.40;;;24.70;89.00;24.20;96203.00;;;;5014658;28;20305;-82
2023/08/26 03:50:00;;;;;;;2.60;2.23;;;24.70;88.60;24.10;96206.00;;;;5025279;28;20275;-82
2023/08/26 03:52:27;;;;;;;3.43;2.00;;;24.60;88.50;24.00;96214.00;;;;5019095;28;20769;-82
2023/08/26 03:54:56;;;;;;;2.60;2.40;;;24.60;88.70;24.00;96216.00;;;;5021878;28;20193;-83
2023/08/26 03:57:23;;;;;;;2.97;2.40;;;24.50;88.60;23.90;96237.00;;;;5014300;28;20204;-82
2023/08/26 03:59:50;;;;;;;2.40;2.20;;;24.40;88.60;23.80;96267.00;;;;5017789;28;20215;-82
2023/08/26 04:02:18;;;;;;;1.97;1.83;;;24.40;88.60;23.80;96255.00;;;;5022806;28;20205;-83
2023/08/26 04:04:45;;;;;;;2.63;2.43;;;24.30;88.80;23.70;96245.00;;;;5018964;28;20194;-83
2023/08/26 04:07:12;;;;;;;2.50;2.30;;;24.30;88.90;23.70;96242.00;;;;5023682;28;20201;-83
2023/08/26 04:09:39;;;;;;;3.60;2.50;;;24.20;88.90;23.60;96232.00;;;;4983669;28;20583;-83
2023/08/26 04:12:08;;;;;;;3.53;2.27;;;24.20;89.00;23.60;96238.00;;;;5025042;28;20797;-83
2023/08/26 04:14:35;;;;;;;2.83;2.47;;;24.20;89.10;23.50;96238.00;;;;5024816;28;20650;-83
2023/08/26 04:17:04;;;;;;;2.70;2.40;;;24.10;89.10;23.50;96230.00;;;;5032813;28;20228;-83
2023/08/26 04:19:32;;;;;;;6.30;1.97;;;24.10;89.30;23.50;96245.00;;;;5019997;28;20769;-83
2023/08/26 04:22:00;;;;;;;2.50;2.30;;;24.00;89.60;23.50;96268.00;;;;5021196;28;20211;-83
2023/08/26 04:24:27;;;;;;;2.17;1.97;;;24.00;89.90;23.50;96270.00;;;;5013937;28;20202;-83
2023/08/26 04:26:54;;;;;;;2.50;2.30;;;24.00;90.00;23.50;96267.00;;;;5018560;28;20225;-83
2023/08/26 04:29:23;;;;;;;2.77;2.50;;;24.00;89.80;23.40;96254.00;;;;5019779;28;20204;-83
2023/08/26 04:31:50;;;;;;;3.10;2.37;;;23.90;89.60;23.40;96256.00;;;;5026173;28;20232;-84
2023/08/26 04:34:17;;;;;;;2.40;2.20;;;23.90;89.90;23.40;96261.00;;;;5023412;28;20581;-83
2023/08/26 04:36:44;;;;;;;2.83;2.20;;;23.90;90.00;23.40;96265.00;;;;5023705;28;20314;-83
2023/08/26 04:39:12;;;;;;;3.53;2.60;;;23.90;89.80;23.40;96260.00;;;;5014844;28;20571;-83
2023/08/26 04:41:40;;;;;;;2.30;2.10;;;23.90;90.00;23.40;96248.00;;;;5023822;28;20202;-82
2023/08/26 04:44:08;;;;;;;2.33;2.13;;;23.90;90.10;23.40;96241.00;;;;5015407;28;20219;-83
2023/08/26 04:46:37;;;;;;;3.07;2.17;;;23.90;90.20;23.40;96235.00;;;;5027243;28;20210;-83
2023/08/26 04:49:05;;;;;;;2.37;2.17;;;23.90;90.10;23.40;96220.00;;;;5018312;28;20258;-83
2023/08/26 04:51:32;;;;;;;2.63;2.20;;;23.90;90.20;23.40;96233.00;;;;5022442;28;20710;-83
2023/08/26 04:53:59;;;;;;;2.13;2.00;;;23.90;90.30;23.40;96228.00;;;;5000285;28;20201;-83
2023/08/26 04:56:27;;;;;;;2.70;2.17;;;23.90;90.30;23.40;96228.00;;;;5018601;28;20231;-83
2023/08/26 04:58:54;;;;;;;2.23;2.03;;;23.90;90.40;23.40;96237.00;;;;5018734;28;20200;-83
2023/08/26 05:01:22;;;;;;;2.23;2.07;;;23.90;90.30;23.40;96237.00;;;;5019492;28;20201;-83
2023/08/26 05:03:51;;;;;;;2.40;2.20;;;23.90;90.40;23.40;96236.00;;;;5024509;28;20659;-83
2023/08/26 05:06:18;;;;;;;3.13;2.60;;;23.90;90.40;23.40;96235.00;;;;5021749;28;20220;-83
2023/08/26 05:08:45;;;;;;;2.03;1.83;;;23.90;90.30;23.40;96218.00;;;;5030764;28;20197;-83
2023/08/26 05:11:12;;;;;;;2.47;2.23;;;23.90;90.20;23.40;96230.00;;;;5023529;28;20227;-83
2023/08/26 05:13:39;;;;;;;2.33;2.13;;;23.90;90.20;23.40;96233.00;;;;5019832;28;20202;-83
2023/08/26 05:16:06;;;;;;;2.00;1.90;;;23.90;90.30;23.50;96229.00;;;;5019671;28;20220;-83
2023/08/26 05:18:33;;;;;;;2.30;2.07;;;23.90;90.40;23.50;96235.00;;;;5020652;28;20201;-83
2023/08/26 05:21:03;;;;;;;2.60;2.23;;;23.90;90.40;23.50;96223.00;;;;5027203;28;20224;-83
2023/08/26 05:23:32;;;;;;;2.33;2.23;;;23.90;90.30;23.50;96220.00;;;;5021143;28;20189;-84
2023/08/26 05:25:59;;;;;;;2.40;2.20;;;24.00;90.40;23.50;96218.00;;;;5018871;28;20223;-83
2023/08/26 05:28:26;;;;;;;2.20;2.10;;;24.00;90.50;23.50;96215.00;;;;5022437;28;20194;-83
2023/08/26 05:30:56;;;;;;;2.43;2.23;;;24.00;90.50;23.50;96230.00;;;;5026500;28;20219;-84
2023/08/26 05:33:24;;;;;;;2.00;1.90;;;24.00;90.40;23.50;96222.00;;;;5014772;28;20201;-84
2023/08/26 05:35:51;;;;;;;2.13;2.03;;;24.00;90.40;23.60;96222.00;;;;5021375;28;20216;-83
2023/08/26 05:38:20;;;;;;;3.07;2.30;;;24.00;90.40;23.60;96220.00;;;;5023410;28;20691;-83
2023/08/26 05:40:47;;;;;;;1.87;1.77;;;24.00;90.40;23.60;96236.00;;;;5022383;28;20635;-83
2023/08/26 05:43:14;;;;;;;2.53;2.27;;;24.00;90.50;23.60;96241.00;;;;5020673;28;20205;-83
2023/08/26 05:45:41;;;;;;;2.13;2.03;;;24.00;90.60;23.60;96238.00;;;;5021897;28;20223;-83
2023/08/26 05:48:08;;;;;;;1.97;1.87;;;24.10;90.70;23.60;96244.00;;;;5021630;28;20205;-83
2023/08/26 05:50:36;;;;;;;2.20;2.00;;;24.10;90.70;23.70;96250.00;;;;5024191;28;20206;-83
2023/08/26 05:53:04;;;;;;;2.63;2.43;;;24.10;90.70;23.70;96256.00;;;;5024217;28;20316;-83
2023/08/26 05:55:33;;;;;;;2.40;2.20;;;24.10;90.70;23.70;96249.00;;;;5023842;28;20924;-83
2023/08/26 05:58:00;;;;;;;1.97;1.83;;;24.10;90.70;23.70;96250.00;;;;5019210;28;20202;-83
2023/08/26 06:00:28;;;;;;;2.50;2.30;;;24.20;90.80;23.70;96254.00;;;;5033802;28;20715;-83
2023/08/26 06:02:55;;;;;;;3.47;2.27;;;24.20;91.10;23.80;96264.00;;;;5019914;28;20202;-83
2023/08/26 06:05:22;;;;;;;3.00;2.70;;;24.20;90.90;23.80;96255.00;;;;4997832;28;20710;-83
2023/08/26 06:07:50;;;;;;;5.90;2.30;;;24.30;90.80;23.80;96257.00;;;;5022245;28;20666;-83
2023/08/26 06:10:17;;;;;;;2.90;2.60;;;24.30;90.60;23.80;96255.00;;;;5025971;28;20985;-83
2023/08/26 06:12:46;;;;;;;3.10;2.50;;;24.30;90.70;23.90;96252.00;;;;5028127;28;20213;-83
2023/08/26 06:15:14;;;;;;;2.47;2.27;;;24.30;90.70;23.90;96247.00;;;;5024968;28;20216;-83
2023/08/26 06:17:42;;;;;;;2.20;2.00;;;24.30;90.50;23.90;96246.00;;;;5026392;28;20189;-84
2023/08/26 06:20:11;;;;;;;2.70;2.50;;;24.30;90.40;24.00;96254.00;;;;5026834;28;20203;-84
2023/08/26 06:22:38;;;;;;;2.63;2.43;;;24.40;90.50;24.00;96252.00;;;;5025521;28;20201;-83
2023/08/26 06:25:06;;;;;;;3.27;2.97;;;24.40;90.50;24.00;96250.00;;;;5034694;28;20221;-83
2023/08/26 06:27:34;;;;;;;2.20;2.00;;;24.40;90.50;24.00;96260.00;;;;5029991;28;20244;-84
2023/08/26 06:30:03;;;;;;;2.40;2.30;;;24.40;90.50;24.00;96264.00;;;;5021629;28;20201;-84
2023/08/26 06:32:30;;;;;;;2.80;2.10;;;24.40;90.60;24.00;96266.00;;;;5026337;28;20654;-84
2023/08/26 06:34:58;;;;;;;2.47;2.37;;;24.40;90.60;24.00;96269.00;;;;5027419;28;20958;-84
2023/08/26 06:37:25;;;;;;;2.10;1.90;;;24.50;90.70;24.00;96257.00;;;;5028488;28;20207;-84
2023/08/26 06:39:52;;;;;;;2.20;2.00;;;24.50;90.60;24.00;96261.00;;;;5017318;28;20233;-84
2023/08/26 06:42:19;;;;;;;2.33;2.20;;;24.50;90.60;24.10;96263.00;;;;5023851;28;20202;-84
2023/08/26 06:44:46;;;;;;;2.60;2.37;;;24.50;90.60;24.10;96255.00;;;;5006746;28;20284;-83
2023/08/26 06:47:15;;;;;;;2.33;2.20;;;24.50;90.50;24.10;96259.00;;;;5006319;28;20713;-83
2023/08/26 06:49:42;;;;;;;2.30;2.10;;;24.60;90.40;24.10;96260.00;;;;5012808;28;20205;-84
2023/08/26 06:52:09;;;;;;;3.27;2.33;;;24.60;90.40;24.10;96261.00;;;;5019823;28;20224;-84
2023/08/26 06:54:37;;;;;;;2.00;1.90;;;24.60;90.40;24.10;96271.00;;;;5022734;28;20190;-84
2023/08/26 06:57:04;;;;;;;2.33;2.17;;;24.60;90.40;24.20;96265.00;;;;5029596;28;20216;-84
2023/08/26 06:59:32;;;;;;;2.03;1.93;;;24.60;90.30;24.20;96268.00;;;;5026214;28;20205;-84
2023/08/26 07:01:59;;;;;;;2.00;1.90;;;24.60;90.20;24.20;96263.00;;;;5016365;28;20201;-83
2023/08/26 07:04:27;;;;;;;2.40;2.20;;;24.60;90.10;24.20;96250.00;;;;5025256;28;20194;-83
2023/08/26 07:06:54;;;;;;;2.87;2.10;;;24.60;90.30;24.20;96253.00;;;;5032165;28;20214;-84
2023/08/26 07:09:22;;;;;;;2.40;2.10;;;24.60;90.40;24.20;96255.00;;;;5016451;28;20198;-84
2023/08/26 07:11:51;;;;;;;2.17;1.97;;;24.60;90.10;24.20;96248.00;;;;5020307;28;20230;-84
2023/08/26 07:14:21;;;;;;;2.20;2.10;;;24.70;90.20;24.20;96248.00;;;;5022317;28;20201;-84
2023/08/26 07:16:49;;;;;;;1.93;1.73;;;24.70;90.30;24.20;96247.00;;;;5025770;28;20221;-83
2023/08/26 07:19:16;;;;;;;2.13;1.93;;;24.70;90.30;24.20;96246.00;;;;5024831;28;20194;-83
2023/08/26 07:21:46;;;;;;;2.27;2.17;;;24.70;90.00;24.30;96238.00;;;;5025342;28;20204;-84
2023/08/26 07:24:15;;;;;;;1.80;1.70;;;24.70;89.90;24.30;96229.00;;;;5024341;28;20213;-84
2023/08/26 07:26:42;;;;;;;1.97;1.70;;;24.70;90.10;24.30;96230.00;;;;5025934;28;20773;-84
2023/08/26 07:29:09;;;;;;;1.80;1.70;;;24.70;90.00;24.30;96222.00;;;;5033461;28;20201;-84
2023/08/26 07:31:36;;;;;;;2.33;2.17;;;24.70;90.30;24.30;96232.00;;;;5020807;28;20552;-84
2023/08/26 07:34:04;;;;;;;2.37;2.17;;;24.80;90.00;24.40;96250.00;;;;5019568;28;20194;-83
2023/08/26 07:36:31;;;;;;;2.30;2.20;;;24.80;90.00;24.40;96249.00;;;;5030539;28;20225;-84
2023/08/26 07:39:00;;;;;;;2.10;1.90;;;24.80;89.90;24.40;96248.00;;;;5024199;28;20194;-84
2023/08/26 07:41:27;;;;;;;1.93;1.83;;;24.80;90.00;24.40;96253.00;;;;5025257;28;20198;-84
2023/08/26 07:43:54;;;;;;;2.00;1.90;;;24.90;90.20;24.50;96254.00;;;;5019425;28;20209;-84
2023/08/26 07:46:22;;;;;;;2.00;1.90;;;24.90;90.30;24.60;96246.00;;;;5013438;28;20225;-83
2023/08/26 07:48:50;;;;;;;2.30;2.10;;;24.90;90.50;24.60;96250.00;;;;5019774;28;20202;-83
2023/08/26 07:51:17;;;;;;;1.80;1.70;;;25.00;90.50;24.70;96246.00;;;;5013530;28;20208;-84
2023/08/26 07:53:45;;;;;;;1.90;1.80;;;25.10;90.50;24.80;96250.00;;;;5015436;28;20594;-83
2023/08/26 07:56:14;;;;;;;2.03;1.87;;;25.10;90.40;24.80;96253.00;;;;5032968;28;20603;-83
2023/08/26 07:58:41;;;;;;;1.90;1.77;;;25.20;90.40;24.80;96248.00;;;;5021315;28;20194;-84
2023/08/26 08:01:08;;;;;;;2.13;1.70;;;25.20;90.40;24.90;96238.00;;;;5029052;28;20209;-83
2023/08/26 08:03:35;;;;;;;1.70;1.60;;;25.30;90.30;24.90;96257.00;;;;5024908;28;20689;-83
2023/08/26 08:06:03;;;;;;;3.13;1.80;;;25.30;90.30;25.00;96254.00;;;;5024201;28;20221;-84
2023/08/26 08:08:30;;;;;;;2.07;1.97;;;25.30;90.40;25.00;96246.00;;;;5015199;28;20568;-84
2023/08/26 08:10:57;;;;;;;2.27;2.10;;;25.40;90.50;25.10;96247.00;;;;5019606;28;20206;-84
2023/08/26 08:13:26;;;;;;;3.37;2.27;;;25.40;90.50;25.20;96242.00;;;;5023066;28;20232;-83
2023/08/26 08:15:53;;;;;;;2.83;2.43;;;25.50;90.40;25.30;96240.00;;;;5018812;28;20218;-84
2023/08/26 08:18:20;;;;;;;3.17;2.50;;;25.60;90.50;25.40;96245.00;;;;5022270;28;20205;-84
2023/08/26 08:20:47;;;;;;;2.40;2.30;;;25.70;90.50;25.40;96248.00;;;;5026553;28;20202;-84
2023/08/26 08:23:14;;;;;;;2.70;2.50;;;25.70;90.40;25.50;96248.00;;;;5020848;28;20202;-84
2023/08/26 08:25:42;;;;;;;2.50;2.30;;;25.80;90.30;25.60;96253.00;;;;5020255;28;20214;-84
2023/08/26 08:28:09;;;;;;;2.53;2.33;;;25.90;90.30;25.60;96239.00;;;;5020846;28;20202;-84
2023/08/26 08:30:37;;;;;;;3.13;2.93;;;26.00;90.40;25.70;96240.00;;;;5026232;28;20193;-83
2023/08/26 08:33:05;;;;;;;2.90;2.70;;;26.00;89.70;25.80;96240.00;;;;5009543;28;20233;-83
2023/08/26 08:35:32;;;;;;;2.50;2.40;;;26.10;89.90;25.80;96235.00;;;;5018992;28;20221;-83
2023/08/26 08:38:00;;;;;;;3.10;2.90;;;26.10;90.10;25.90;96231.00;;;;5019675;28;20206;-83
2023/08/26 08:40:27;;;;;;;3.50;3.20;;;26.20;90.30;26.00;96221.00;;;;5019849;28;20201;-83
2023/08/26 08:42:57;;;;;;;3.67;3.00;;;26.30;89.50;26.00;96214.00;;;;5021067;28;20662;-83
2023/08/26 08:45:25;;;;;;;3.30;3.10;;;26.30;90.00;26.10;96204.00;;;;5013378;28;20602;-83
2023/08/26 08:47:56;;;;;;;3.70;3.40;;;26.40;89.30;26.00;96206.00;;;;5020678;28;20588;-83
2023/08/26 08:50:24;;;;;;;3.13;2.90;;;26.40;88.70;26.00;96215.00;;;;5019530;28;20221;-83
2023/08/26 08:52:57;;;;;;;2.93;2.70;;;26.40;88.70;26.00;96220.00;;;;5019258;28;20217;-83
2023/08/26 08:55:25;;;;;;;3.60;3.10;;;26.40;87.40;26.00;96231.00;;;;5030411;28;20213;-83
2023/08/26 08:57:57;;;;;;;3.27;2.90;;;26.40;87.10;26.00;96241.00;;;;5022736;28;20193;-83
2023/08/26 09:00:25;;;;;;;3.13;2.93;;;26.40;87.80;26.10;96251.00;;;;5022115;28;20276;-83
2023/08/26 09:02:59;;;;;;;3.80;3.50;;;26.40;88.70;26.10;96252.00;;;;5026003;28;20571;-83
2023/08/26 09:05:27;;;;;;;3.87;3.20;;;26.40;87.70;26.10;96246.00;;;;5028501;28;20235;-83
2023/08/26 09:07:56;;;;;;;4.33;4.03;;;26.50;88.20;26.10;96248.00;;;;5014090;28;20202;-83
2023/08/26 09:10:26;;;;;;;4.30;3.50;;;26.50;87.60;26.10;96242.00;;;;5020319;28;20203;-83
2023/08/26 09:12:53;;;;;;;4.03;3.57;;;26.50;86.90;26.10;96245.00;;;;5005596;28;20218;-83
2023/08/26 09:15:21;;;;;;;3.63;3.10;;;26.50;86.50;26.10;96240.00;;;;5019314;28;20244;-83
2023/08/26 09:17:48;;;;;;;2.90;2.70;;;26.50;85.90;26.10;96242.00;;;;5017231;28;20304;-84
2023/08/26 09:20:16;;;;;;;4.27;3.20;;;26.40;86.00;26.10;96248.00;;;;5014580;28;20294;-83
2023/08/26 09:22:43;;;;;;;3.10;2.90;;;26.40;86.80;26.10;96244.00;;;;5016976;28;20204;-83
2023/08/26 09:25:10;;;;;;;3.03;2.83;;;26.40;88.20;26.10;96251.00;;;;5027977;28;20600;-83
2023/08/26 09:27:43;;;;;;;6.13;3.10;;;26.50;87.40;26.20;96256.00;;;;5031525;28;20701;-83
2023/08/26 09:30:11;;;;;;;3.53;3.23;;;26.50;86.10;26.20;96251.00;;;;5022260;28;20198;-83
2023/08/26 09:32:43;;;;;;;4.87;3.40;;;26.50;86.70;26.20;96254.00;;;;5010155;28;20934;-83
2023/08/26 09:35:13;;;;;;;18.97;4.50;;;26.50;86.40;26.30;96256.00;;;;5018317;28;20256;-83
2023/08/26 09:37:45;;;;;;;7.30;4.03;;;26.60;87.20;26.30;96257.00;;;;5024190;28;20194;-83
2023/08/26 09:40:18;;;;;;;4.17;2.87;;;26.60;87.40;26.30;96252.00;;;;5021764;28;20279;-83
2023/08/26 09:42:45;;;;;;;10.07;4.10;;;26.60;87.30;26.30;96255.00;;;;5020382;28;20201;-83
2023/08/26 09:45:17;;;;;;;3.37;3.07;;;26.70;88.20;26.30;96250.00;;;;5019812;28;20865;-83
2023/08/26 09:47:49;;;;;;;6.93;3.20;;;26.70;87.20;26.30;96249.00;;;;5023705;28;20204;-83
2023/08/26 09:50:16;;;;;;;3.13;2.92;;;26.70;87.30;26.30;96248.00;;;;5015128;28;20233;-83
2023/08/26 09:52:48;;;;;;;4.00;3.40;;;26.70;86.90;26.30;96243.00;;;;5031353;28;20233;-83
2023/08/26 09:55:16;;;;;;;3.00;2.80;;;26.70;86.60;26.30;96229.00;;;;5023390;28;20214;-83
2023/08/26 09:57:44;;;;;;;8.07;3.40;;;26.70;86.90;26.30;96219.00;;;;5023286;28;20197;-83
2023/08/26 10:00:12;;;;;;;7.57;3.37;;;26.70;87.00;26.30;96229.00;;;;5030142;28;20617;-83
2023/08/26 10:02:48;;;;;;;11.30;4.20;;;26.70;87.30;26.30;96221.00;;;;5035675;28;20262;-83
2023/08/26 10:05:19;;;;;;;5.03;3.57;;;26.70;87.10;26.30;96218.00;;;;5019645;28;20221;-83
2023/08/26 10:07:50;;;;;;;3.35;3.05;;;26.70;86.70;26.20;96227.00;;;;5018529;28;20201;-83
2023/08/26 10:10:35;;;;;;;3.10;2.80;;;26.70;85.70;26.20;96229.00;;;;5030760;28;20570;-83
2023/08/26 10:13:06;;;;;;;4.97;3.10;;;26.60;85.60;26.30;96214.00;;;;5009123;28;20222;-84
2023/08/26 10:15:34;;;;;;;2.58;2.38;;;26.70;87.20;26.30;96205.00;;;;5022069;28;20221;-83
2023/08/26 10:18:11;;;;;;;3.03;2.75;;;26.70;86.70;26.40;96207.00;;;;5022576;28;20193;-83
2023/08/26 10:20:40;;;;;;;3.13;2.85;;;26.80;87.60;26.50;96203.00;;;;5021865;28;20190;-83
2023/08/26 10:23:13;;;;;;;4.70;3.70;;;26.80;87.10;26.70;96181.00;;;;5020731;28;20205;-83
2023/08/26 10:25:40;;;;;;;3.55;3.25;;;26.90;88.30;26.80;96176.00;;;;5021071;28;20209;-83
2023/08/26 10:28:08;;;;;;;10.00;3.85;;;27.00;88.20;26.90;96186.00;;;;5027740;28;20206;-83
2023/08/26 10:30:36;;;;;;;4.00;3.30;;;27.10;88.90;27.10;96184.00;;;;5016817;28;20276;-83
2023/08/26 10:33:05;;;;;;;4.60;3.20;;;27.30;89.00;27.20;96175.00;;;;5024615;28;20221;-84
2023/08/26 10:35:32;;;;;;;3.33;2.97;;;27.40;89.20;27.40;96171.00;;;;5021925;28;20233;-83
2023/08/26 10:38:17;;;;;;;4.70;2.80;;;27.50;88.00;27.50;96172.00;;;;5023103;28;20201;-84
2023/08/26 10:40:44;;;;;;;3.55;3.10;;;27.60;84.30;27.70;96177.00;;;;5023424;28;20190;-84
2023/08/26 10:43:14;;;;;;;3.53;3.17;;;27.80;87.20;27.80;96173.00;;;;5014977;28;20577;-84
2023/08/26 10:45:49;;;;;;;4.03;2.65;;;27.90;86.00;27.90;96176.00;;;;5026861;28;20302;-84
2023/08/26 10:48:18;;;;;;;3.25;2.65;;;28.10;85.00;28.10;96162.00;;;;5025932;28;20213;-84
2023/08/26 10:50:59;;;;;;;3.08;2.88;;;28.20;86.70;28.20;96165.00;;;;5021654;28;20190;-84
2023/08/26 10:53:28;;;;;;;3.05;2.58;;;28.40;84.40;28.30;96157.00;;;;5024576;28;20214;-84
2023/08/26 10:56:17;;;;;;;3.10;2.45;;;28.50;84.30;28.40;96149.00;;;;5025840;28;20224;-84
2023/08/26 10:58:46;;;;;;;3.33;2.58;;;28.60;83.20;28.40;96146.00;;;;5025768;28;20194;-84
2023/08/26 11:01:14;;;;;;;4.78;2.50;;;28.70;84.60;28.50;96145.00;;;;5024668;28;20255;-84